Time;durP1;ratioP1;P1;durP2;ratioP2;P2;SDS_P1;SDS_P2;PMS_P1;PMS_P2;Temp;Humidity;BMP_temperature;BMP_pressure;BME280_temperature;BME280_humidity;BME280_pressure;Samples;Min_cycle;Max_cycle;Signal;HPM_P1;HPM_P2
2022/05/22 00:00:07;;;;;;;0.93;0.40;;;17.60;42.40;;;;;;2338749;55;21497;-76
2022/05/22 00:02:33;;;;;;;1.15;0.50;;;17.50;42.50;;;;;;2399509;53;20923;-76
2022/05/22 00:05:00;;;;;;;1.87;0.52;;;17.50;42.50;;;;;;2330218;54;20958;-76
2022/05/22 00:07:26;;;;;;;1.20;0.50;;;17.50;42.70;;;;;;2338141;55;20966;-76
2022/05/22 00:09:53;;;;;;;1.35;0.50;;;17.40;42.70;;;;;;2338573;55;20983;-76
2022/05/22 00:12:19;;;;;;;1.50;0.50;;;17.40;42.80;;;;;;2531595;53;20969;-77
2022/05/22 00:14:47;;;;;;;1.00;0.45;;;17.30;42.80;;;;;;2337434;55;20985;-75
2022/05/22 00:17:13;;;;;;;1.77;0.50;;;17.30;42.90;;;;;;2314914;54;20963;-75
2022/05/22 00:19:40;;;;;;;1.42;0.60;;;17.30;43.00;;;;;;2316003;54;21473;-76
2022/05/22 00:22:08;;;;;;;1.12;0.55;;;17.20;42.90;;;;;;2511620;54;21030;-75
2022/05/22 00:24:34;;;;;;;1.77;0.55;;;17.20;43.00;;;;;;2315119;54;20947;-76
2022/05/22 00:27:02;;;;;;;3.15;0.70;;;17.20;43.20;;;;;;2317454;54;20973;-77
2022/05/22 00:29:28;;;;;;;1.40;0.57;;;17.10;43.20;;;;;;2315532;54;20960;-76
2022/05/22 00:31:55;;;;;;;2.17;0.60;;;17.10;43.30;;;;;;2519242;53;21953;-75
2022/05/22 00:34:21;;;;;;;3.03;0.70;;;17.10;43.40;;;;;;2295521;54;21638;-76
2022/05/22 00:36:47;;;;;;;2.17;0.70;;;17.10;43.50;;;;;;2318088;54;20955;-76
2022/05/22 00:39:16;;;;;;;1.95;0.50;;;17.00;43.40;;;;;;2315870;54;20947;-76
2022/05/22 00:41:51;;;;;;;2.80;0.90;;;17.00;43.60;;;;;;2317334;54;21038;-75
2022/05/22 00:44:17;;;;;;;1.95;0.62;;;16.90;43.70;;;;;;2293706;54;20947;-77
2022/05/22 00:46:44;;;;;;;1.73;0.60;;;16.90;43.70;;;;;;2306029;55;21859;-76
2022/05/22 00:49:21;;;;;;;1.45;0.60;;;16.90;43.70;;;;;;2298264;54;20957;-76
2022/05/22 00:52:04;;;;;;;1.40;0.50;;;16.90;44.10;;;;;;2293315;55;20941;-76
2022/05/22 00:55:26;;;;;;;1.23;0.52;;;16.90;44.00;;;;;;2314846;54;20897;-77
2022/05/22 00:57:58;;;;;;;1.60;0.52;;;16.80;44.30;;;;;;2313813;54;20980;-76
2022/05/22 01:00:28;;;;;;;1.52;0.60;;;16.80;44.00;;;;;;2310493;54;21041;-78
2022/05/22 01:05:40;;;;;;;1.73;0.50;;;16.80;44.10;;;;;;2440409;54;21668;-78
2022/05/22 01:08:06;;;;;;;1.37;0.70;;;16.70;44.00;;;;;;2317123;54;20972;-76
2022/05/22 01:10:35;;;;;;;1.55;0.50;;;16.70;44.20;;;;;;2389550;54;20939;-75
2022/05/22 01:13:01;;;;;;;1.80;0.57;;;16.70;44.40;;;;;;2303937;54;21323;-76
2022/05/22 01:15:27;;;;;;;0.93;0.40;;;16.60;44.40;;;;;;2316154;55;21777;-76
2022/05/22 01:17:54;;;;;;;3.83;0.62;;;16.60;44.40;;;;;;2316162;54;20924;-76
2022/05/22 01:20:20;;;;;;;1.10;0.47;;;16.60;44.50;;;;;;2315620;55;21476;-75
2022/05/22 01:22:46;;;;;;;1.67;0.60;;;16.50;44.40;;;;;;2316447;55;20923;-76
2022/05/22 01:25:13;;;;;;;1.27;0.60;;;16.50;44.60;;;;;;2488681;54;20965;-77
2022/05/22 01:27:39;;;;;;;2.90;0.70;;;16.50;44.70;;;;;;2316152;54;20935;-76
2022/05/22 01:30:21;;;;;;;1.33;0.50;;;16.50;44.80;;;;;;2315553;54;20959;-76
2022/05/22 01:32:48;;;;;;;1.20;0.60;;;16.40;45.30;;;;;;2318967;54;20963;-76
2022/05/22 01:35:18;;;;;;;2.90;0.50;;;16.50;45.00;;;;;;2312448;55;20966;-79
2022/05/22 01:37:45;;;;;;;1.15;0.35;;;16.40;45.00;;;;;;2322611;54;21403;-76
2022/05/22 01:40:12;;;;;;;4.43;0.88;;;16.40;45.00;;;;;;2420107;54;21014;-76
2022/05/22 01:42:38;;;;;;;1.52;0.50;;;16.40;45.10;;;;;;2316039;54;20951;-77
2022/05/22 01:45:06;;;;;;;0.65;0.35;;;16.30;45.10;;;;;;2315838;54;21909;-76
2022/05/22 01:47:33;;;;;;;1.20;0.47;;;16.40;45.20;;;;;;2315871;54;21752;-78
2022/05/22 01:49:59;;;;;;;1.37;0.47;;;16.30;45.20;;;;;;2316054;54;21202;-76
2022/05/22 01:52:25;;;;;;;1.20;0.47;;;16.30;45.20;;;;;;2315768;54;21860;-76
2022/05/22 01:54:52;;;;;;;1.50;0.60;;;16.30;45.30;;;;;;2316009;54;21039;-76
2022/05/22 01:57:18;;;;;;;0.95;0.40;;;16.30;45.40;;;;;;2316006;54;21480;-77
2022/05/22 01:59:45;;;;;;;1.50;0.60;;;16.20;45.40;;;;;;2352267;54;21231;-77
2022/05/22 02:02:14;;;;;;;1.15;0.50;;;16.20;45.50;;;;;;2316068;54;21026;-76
2022/05/22 02:04:40;;;;;;;1.20;0.40;;;16.20;45.50;;;;;;2312017;55;20927;-76
2022/05/22 02:09:51;;;;;;;1.50;0.60;;;16.20;45.70;;;;;;2323583;54;21002;-76
2022/05/22 02:12:17;;;;;;;1.48;0.60;;;16.20;45.80;;;;;;2339069;54;21011;-75
2022/05/22 02:14:44;;;;;;;0.77;0.45;;;16.20;46.00;;;;;;2338178;54;20911;-75
2022/05/22 02:17:10;;;;;;;1.05;0.45;;;16.10;46.00;;;;;;2338748;54;21404;-76
2022/05/22 02:19:37;;;;;;;1.73;0.62;;;16.10;46.10;;;;;;2399419;53;20927;-76
2022/05/22 02:22:03;;;;;;;1.10;0.50;;;16.10;46.10;;;;;;2338248;54;20931;-76
2022/05/22 02:24:30;;;;;;;2.92;0.55;;;16.10;46.10;;;;;;2338551;54;20904;-78
2022/05/22 02:27:06;;;;;;;1.48;0.50;;;16.10;46.20;;;;;;2337947;54;20971;-78
2022/05/22 02:29:34;;;;;;;1.83;0.60;;;16.10;46.20;;;;;;2338277;54;21047;-76
2022/05/22 02:32:00;;;;;;;1.20;0.50;;;16.10;46.20;;;;;;2355909;53;21189;-76
2022/05/22 02:34:26;;;;;;;2.35;0.70;;;16.00;46.20;;;;;;2582214;53;21601;-76
2022/05/22 02:36:53;;;;;;;1.73;0.60;;;16.00;46.30;;;;;;2583721;53;20888;-76
2022/05/22 02:39:19;;;;;;;1.10;0.50;;;16.00;46.30;;;;;;2496828;53;20900;-76
2022/05/22 02:41:46;;;;;;;1.77;0.60;;;16.00;46.30;;;;;;2338602;54;20892;-76
2022/05/22 02:44:12;;;;;;;0.88;0.50;;;15.90;46.30;;;;;;2338626;54;21446;-76
2022/05/22 02:46:41;;;;;;;1.05;0.50;;;15.90;46.90;;;;;;2443637;53;20987;-76
2022/05/22 02:49:08;;;;;;;1.25;0.47;;;15.90;46.60;;;;;;2446520;53;20903;-77
2022/05/22 02:51:34;;;;;;;0.88;0.40;;;15.90;46.60;;;;;;2583727;53;20944;-77
2022/05/22 02:54:00;;;;;;;1.15;0.50;;;15.80;46.60;;;;;;2580661;53;20892;-77
2022/05/22 02:56:27;;;;;;;1.73;0.60;;;15.80;46.60;;;;;;2546856;53;20970;-76
2022/05/22 02:58:55;;;;;;;1.17;0.50;;;15.80;46.70;;;;;;2338594;54;20935;-78
2022/05/22 03:01:21;;;;;;;1.25;0.40;;;15.80;46.80;;;;;;2338613;54;20935;-76
2022/05/22 03:03:48;;;;;;;1.15;0.50;;;15.80;46.70;;;;;;2556867;54;20967;-75
2022/05/22 03:08:59;;;;;;;1.35;0.52;;;15.70;46.70;;;;;;2282689;55;21548;-75
2022/05/22 03:11:25;;;;;;;2.25;0.85;;;15.70;46.70;;;;;;2311762;55;21048;-75
2022/05/22 03:13:52;;;;;;;2.15;0.90;;;15.70;46.70;;;;;;2555920;54;21666;-76
2022/05/22 03:16:18;;;;;;;2.00;0.73;;;15.60;46.70;;;;;;2315512;54;21125;-76
2022/05/22 03:18:44;;;;;;;2.10;0.82;;;15.60;46.90;;;;;;2317784;54;21038;-75
2022/05/22 03:21:12;;;;;;;2.00;0.70;;;15.60;47.00;;;;;;2318314;54;20978;-76
2022/05/22 03:23:39;;;;;;;1.80;0.80;;;15.60;47.00;;;;;;2301829;54;20971;-75
2022/05/22 03:26:06;;;;;;;1.85;0.70;;;15.60;47.10;;;;;;2302985;54;21045;-77
2022/05/22 03:28:33;;;;;;;1.40;0.73;;;15.50;47.10;;;;;;2299030;54;20993;-76
2022/05/22 03:30:59;;;;;;;2.33;0.60;;;15.50;47.10;;;;;;2312929;55;21031;-77
2022/05/22 03:33:27;;;;;;;1.70;0.60;;;15.50;47.10;;;;;;2318293;55;20975;-78
2022/05/22 03:35:53;;;;;;;2.90;0.60;;;15.50;47.10;;;;;;2295245;55;20963;-75
2022/05/22 03:38:19;;;;;;;2.03;0.60;;;15.40;47.10;;;;;;2295163;55;20949;-76
2022/05/22 03:40:46;;;;;;;1.90;0.52;;;15.40;47.20;;;;;;2470922;53;20991;-76
2022/05/22 03:43:16;;;;;;;0.77;0.40;;;15.40;47.20;;;;;;2432789;53;20943;-76
2022/05/22 03:45:43;;;;;;;0.90;0.40;;;15.40;47.50;;;;;;2452119;53;20959;-78
2022/05/22 03:48:10;;;;;;;1.33;0.50;;;15.30;47.30;;;;;;2321350;54;21794;-75
2022/05/22 03:50:36;;;;;;;1.40;0.50;;;15.30;47.30;;;;;;2338206;54;20992;-75
2022/05/22 03:53:02;;;;;;;0.80;0.40;;;15.20;47.40;;;;;;2571471;53;21013;-76
2022/05/22 03:55:29;;;;;;;1.15;0.43;;;15.20;47.50;;;;;;2413633;54;21487;-76
2022/05/22 03:57:56;;;;;;;0.93;0.52;;;15.20;47.60;;;;;;2317280;55;21475;-77
2022/05/22 04:00:25;;;;;;;1.33;0.40;;;15.20;47.70;;;;;;2338421;54;20915;-76
2022/05/22 04:02:51;;;;;;;1.33;0.50;;;15.20;48.00;;;;;;2329697;54;20938;-76
2022/05/22 04:05:20;;;;;;;1.37;0.55;;;15.20;48.10;;;;;;2332594;54;21018;-76
2022/05/22 04:07:47;;;;;;;2.60;0.70;;;15.20;48.20;;;;;;2339541;54;20990;-77
2022/05/22 04:10:14;;;;;;;1.75;0.60;;;15.20;48.10;;;;;;2339420;54;20915;-75
2022/05/22 04:12:42;;;;;;;1.40;0.45;;;15.20;48.20;;;;;;2338781;54;21487;-77
2022/05/22 04:15:13;;;;;;;1.25;0.60;;;15.20;48.30;;;;;;2327359;54;21024;-75
2022/05/22 04:17:39;;;;;;;3.78;0.62;;;15.20;48.40;;;;;;2325941;54;21028;-77
2022/05/22 04:20:07;;;;;;;0.90;0.40;;;15.20;48.40;;;;;;2324164;54;21843;-76
2022/05/22 04:22:33;;;;;;;1.02;0.40;;;15.30;48.60;;;;;;2583906;53;21059;-77
2022/05/22 04:25:12;;;;;;;1.15;0.50;;;15.30;48.60;;;;;;2338760;54;20943;-77
2022/05/22 04:27:39;;;;;;;1.42;0.50;;;15.30;48.60;;;;;;2338986;54;20943;-77
2022/05/22 04:30:06;;;;;;;0.90;0.50;;;15.30;48.70;;;;;;2330113;54;20969;-75
2022/05/22 04:32:33;;;;;;;0.95;0.50;;;15.40;48.80;;;;;;2328157;54;21408;-76
2022/05/22 04:34:59;;;;;;;1.85;0.60;;;15.40;48.80;;;;;;2338935;54;20991;-76
2022/05/22 04:37:26;;;;;;;1.00;0.40;;;15.40;48.90;;;;;;2338438;54;20935;-78
2022/05/22 04:39:52;;;;;;;1.30;0.50;;;15.40;48.90;;;;;;2338768;54;20907;-75
2022/05/22 04:42:19;;;;;;;1.60;0.60;;;15.50;49.00;;;;;;2338417;54;21030;-77
2022/05/22 04:44:45;;;;;;;0.93;0.40;;;15.50;49.00;;;;;;2337859;54;20912;-75
2022/05/22 04:47:11;;;;;;;1.10;0.50;;;15.60;49.10;;;;;;2583777;53;21463;-75
2022/05/22 04:49:37;;;;;;;1.48;0.57;;;15.60;49.10;;;;;;2338676;54;20980;-75
2022/05/22 04:52:04;;;;;;;4.65;0.62;;;15.60;49.20;;;;;;2343550;53;21013;-78
2022/05/22 04:54:31;;;;;;;2.03;0.55;;;15.70;49.30;;;;;;2497577;53;21835;-75
2022/05/22 04:56:57;;;;;;;1.45;0.60;;;15.70;49.30;;;;;;2336755;54;20940;-75
2022/05/22 04:59:23;;;;;;;1.27;0.50;;;15.70;49.40;;;;;;2331720;54;21073;-77
2022/05/22 05:01:50;;;;;;;1.75;0.70;;;15.80;49.50;;;;;;2323083;54;21968;-76
2022/05/22 05:04:16;;;;;;;1.70;0.47;;;15.80;49.60;;;;;;2321366;54;20967;-77
2022/05/22 05:06:42;;;;;;;3.20;0.65;;;15.90;49.80;;;;;;2337713;54;20943;-76
2022/05/22 05:09:09;;;;;;;2.25;0.70;;;15.90;49.80;;;;;;2329332;54;21381;-76
2022/05/22 05:11:35;;;;;;;1.73;0.50;;;16.00;49.90;;;;;;2318806;54;21010;-75
2022/05/22 05:14:01;;;;;;;1.02;0.50;;;16.00;49.90;;;;;;2339386;53;20980;-76
2022/05/22 05:16:28;;;;;;;1.20;0.60;;;16.10;50.00;;;;;;2323315;54;20984;-75
2022/05/22 05:18:55;;;;;;;1.50;0.70;;;16.20;50.10;;;;;;2321041;54;20925;-78
2022/05/22 05:21:21;;;;;;;1.77;0.60;;;16.30;50.20;;;;;;2444503;53;21223;-76
2022/05/22 05:23:47;;;;;;;0.75;0.45;;;16.30;50.20;;;;;;2336787;54;21464;-78
2022/05/22 05:26:14;;;;;;;1.85;0.60;;;16.40;50.30;;;;;;2336320;54;21015;-76
2022/05/22 05:28:43;;;;;;;1.85;0.50;;;16.50;50.30;;;;;;2583125;53;20907;-76
2022/05/22 05:31:09;;;;;;;1.30;0.60;;;16.50;50.30;;;;;;2338335;54;20939;-75
2022/05/22 05:33:37;;;;;;;1.23;0.60;;;16.60;50.20;;;;;;2338454;54;21303;-75
2022/05/22 05:36:03;;;;;;;1.62;0.50;;;16.70;50.10;;;;;;2339185;54;20979;-76
2022/05/22 05:38:31;;;;;;;1.05;0.50;;;16.70;50.10;;;;;;2336538;54;20968;-77
2022/05/22 05:41:18;;;;;;;1.48;0.50;;;16.80;50.10;;;;;;2582821;53;20935;-78
2022/05/22 05:43:44;;;;;;;3.12;1.08;;;16.90;50.40;;;;;;2337960;54;20994;-75
2022/05/22 05:46:14;;;;;;;1.52;0.60;;;17.00;50.20;;;;;;2340733;54;21296;-75
2022/05/22 05:48:41;;;;;;;1.25;0.50;;;17.00;50.20;;;;;;2318052;54;21435;-75
2022/05/22 05:51:07;;;;;;;1.20;0.50;;;17.10;50.30;;;;;;2337987;54;20925;-76
2022/05/22 05:53:33;;;;;;;1.48;0.55;;;17.20;50.40;;;;;;2322214;54;21473;-75
2022/05/22 05:56:04;;;;;;;1.30;0.52;;;17.20;50.40;;;;;;2332259;54;20988;-75
2022/05/22 05:58:37;;;;;;;1.50;0.68;;;17.30;50.50;;;;;;2338369;54;21394;-76
2022/05/22 06:01:06;;;;;;;2.05;0.82;;;17.40;50.60;;;;;;2479610;53;20907;-75
2022/05/22 06:03:32;;;;;;;2.15;0.60;;;17.50;50.50;;;;;;2337980;54;20943;-75
2022/05/22 06:06:01;;;;;;;2.58;0.70;;;17.60;50.50;;;;;;2334707;54;20966;-75
2022/05/22 06:08:28;;;;;;;1.42;0.60;;;17.70;50.40;;;;;;2324858;54;20932;-76
2022/05/22 06:10:56;;;;;;;1.27;0.50;;;17.70;50.20;;;;;;2338020;54;20983;-78
2022/05/22 06:13:23;;;;;;;2.00;0.60;;;17.80;50.20;;;;;;2341494;53;21400;-75
2022/05/22 06:15:49;;;;;;;1.77;0.65;;;17.90;50.20;;;;;;2338212;54;20963;-75
2022/05/22 06:18:16;;;;;;;1.80;0.70;;;18.00;50.20;;;;;;2438385;53;21043;-76
2022/05/22 06:20:42;;;;;;;2.60;1.00;;;18.10;50.80;;;;;;2445077;53;21718;-77
2022/05/22 06:23:08;;;;;;;1.62;0.60;;;18.20;50.20;;;;;;2335860;54;21463;-77
2022/05/22 06:25:35;;;;;;;1.20;0.60;;;18.30;50.30;;;;;;2338088;54;21503;-76
2022/05/22 06:28:04;;;;;;;1.98;0.70;;;18.40;50.30;;;;;;2318415;54;21499;-75
2022/05/22 06:30:30;;;;;;;1.90;0.70;;;18.40;50.20;;;;;;2336807;54;21823;-75
2022/05/22 06:32:57;;;;;;;1.95;0.60;;;18.60;50.20;;;;;;2513031;53;21414;-78
2022/05/22 06:35:25;;;;;;;1.50;0.60;;;18.60;50.20;;;;;;2320224;55;20943;-79
2022/05/22 06:37:51;;;;;;;1.45;0.62;;;18.70;50.30;;;;;;2326538;54;20970;-77
2022/05/22 06:40:17;;;;;;;1.80;0.82;;;18.80;50.20;;;;;;2575632;53;21737;-75
2022/05/22 06:42:44;;;;;;;3.28;0.90;;;19.00;50.30;;;;;;2331515;54;20997;-76
2022/05/22 06:45:22;;;;;;;1.60;0.70;;;19.10;50.30;;;;;;2320166;54;20915;-73
2022/05/22 06:47:48;;;;;;;2.47;1.02;;;19.20;50.30;;;;;;2339746;54;21006;-75
2022/05/22 06:50:20;;;;;;;2.25;0.80;;;19.30;50.20;;;;;;2562494;53;20908;-75
2022/05/22 06:52:52;;;;;;;2.37;1.10;;;19.40;50.20;;;;;;2338044;54;20979;-76
2022/05/22 06:55:18;;;;;;;3.62;0.90;;;19.50;50.10;;;;;;2582900;53;20959;-75
2022/05/22 06:57:44;;;;;;;1.70;0.80;;;19.70;50.20;;;;;;2338637;54;21365;-76
2022/05/22 07:00:14;;;;;;;2.05;0.93;;;19.80;50.20;;;;;;2319453;54;20897;-76
2022/05/22 07:02:40;;;;;;;2.95;1.02;;;19.90;50.20;;;;;;2422716;53;20927;-79
2022/05/22 07:05:08;;;;;;;2.08;0.70;;;20.00;50.10;;;;;;2336504;54;21704;-78
2022/05/22 07:07:39;;;;;;;2.12;0.82;;;20.20;50.10;;;;;;2582731;53;20953;-75
2022/05/22 07:10:05;;;;;;;1.75;0.80;;;20.30;50.20;;;;;;2339146;54;20899;-76
2022/05/22 07:12:32;;;;;;;2.45;0.80;;;20.50;50.40;;;;;;2317217;55;21005;-76
2022/05/22 07:14:58;;;;;;;1.48;0.73;;;20.60;50.30;;;;;;2483191;53;21306;-75
2022/05/22 07:17:25;;;;;;;1.83;0.80;;;20.80;50.20;;;;;;2337781;54;20983;-76
2022/05/22 07:19:52;;;;;;;2.67;0.80;;;20.90;50.00;;;;;;2338028;54;20991;-75
2022/05/22 07:22:18;;;;;;;2.62;1.00;;;21.10;50.10;;;;;;2583018;53;20963;-75
2022/05/22 07:24:44;;;;;;;1.80;0.70;;;21.20;49.80;;;;;;2326246;54;21771;-77
2022/05/22 07:27:11;;;;;;;2.58;1.00;;;21.30;49.50;;;;;;2328636;54;20941;-75
2022/05/22 07:29:37;;;;;;;2.10;0.80;;;21.50;49.30;;;;;;2329171;54;20939;-76
2022/05/22 07:32:04;;;;;;;2.15;0.82;;;21.50;49.10;;;;;;2337677;54;21043;-76
2022/05/22 07:34:32;;;;;;;1.90;0.60;;;21.60;48.90;;;;;;2324183;54;20921;-75
2022/05/22 07:37:00;;;;;;;1.52;0.65;;;21.70;48.70;;;;;;2323081;54;21037;-76
2022/05/22 07:39:28;;;;;;;1.52;0.68;;;21.70;48.50;;;;;;2533277;53;21672;-75
2022/05/22 07:41:54;;;;;;;1.37;0.60;;;21.80;48.40;;;;;;2337782;54;21345;-75
2022/05/22 07:44:20;;;;;;;1.17;0.55;;;21.90;48.40;;;;;;2337669;54;20971;-74
2022/05/22 07:46:47;;;;;;;2.67;0.80;;;21.90;48.40;;;;;;2337773;54;21686;-75
2022/05/22 07:50:16;;;;;;;2.05;0.98;;;22.00;48.40;;;;;;2335922;54;20981;-75
2022/05/22 07:52:43;;;;;;;2.30;0.60;;;22.10;48.60;;;;;;2578248;53;20947;-75
2022/05/22 07:55:15;;;;;;;2.60;0.80;;;22.30;48.50;;;;;;2582917;53;20930;-78
2022/05/22 07:57:48;;;;;;;2.10;0.85;;;22.40;48.40;;;;;;2326277;54;21485;-71
2022/05/22 08:00:17;;;;;;;2.22;0.80;;;22.50;48.30;;;;;;2583173;53;20943;-76
2022/05/22 08:02:44;;;;;;;1.52;0.60;;;22.50;48.30;;;;;;2337945;54;21488;-77
2022/05/22 08:05:10;;;;;;;2.10;0.70;;;22.60;48.30;;;;;;2433544;53;20912;-79
2022/05/22 08:07:36;;;;;;;2.78;0.80;;;22.70;48.40;;;;;;2323550;54;20946;-75
2022/05/22 08:10:04;;;;;;;1.52;0.52;;;22.80;48.20;;;;;;2322241;54;21090;-76
2022/05/22 08:12:38;;;;;;;2.67;0.68;;;22.90;48.70;;;;;;2338460;54;20919;-76
2022/05/22 08:15:06;;;;;;;1.45;0.60;;;23.00;48.00;;;;;;2504951;53;21435;-75
2022/05/22 08:17:36;;;;;;;2.45;0.70;;;23.10;48.00;;;;;;2337104;54;21040;-76
2022/05/22 08:20:04;;;;;;;1.75;0.57;;;23.20;47.90;;;;;;2337869;54;20939;-75
2022/05/22 08:22:32;;;;;;;2.08;0.60;;;23.30;47.80;;;;;;2336845;54;20943;-74
2022/05/22 08:25:00;;;;;;;1.50;0.60;;;23.40;47.70;;;;;;2507557;53;20960;-76
2022/05/22 08:27:29;;;;;;;1.90;0.70;;;23.50;47.50;;;;;;2337591;54;20903;-75
2022/05/22 08:29:56;;;;;;;1.85;0.73;;;23.60;47.30;;;;;;2337332;54;21701;-75
2022/05/22 08:32:22;;;;;;;1.77;0.80;;;23.70;47.10;;;;;;2337957;54;20904;-73
2022/05/22 08:34:54;;;;;;;1.20;0.60;;;23.80;47.10;;;;;;2338312;54;20944;-76
2022/05/22 08:37:20;;;;;;;2.55;0.70;;;23.80;46.90;;;;;;2338149;54;20924;-73
2022/05/22 08:39:46;;;;;;;2.25;0.80;;;23.90;47.10;;;;;;2337970;54;20928;-75
2022/05/22 08:42:23;;;;;;;2.10;0.93;;;24.00;47.10;;;;;;2583443;53;21255;-75
2022/05/22 08:44:54;;;;;;;2.35;0.80;;;24.10;46.90;;;;;;2581055;53;20988;-74
2022/05/22 08:47:22;;;;;;;1.92;0.75;;;24.10;46.80;;;;;;2337872;54;20919;-74
2022/05/22 08:50:03;;;;;;;2.53;0.80;;;24.30;46.90;;;;;;2337919;54;20923;-74
2022/05/22 08:52:55;;;;;;;1.33;0.68;;;24.40;46.70;;;;;;2338272;54;20943;-74
2022/05/22 08:58:56;;;;;;;1.67;0.62;;;24.40;46.60;;;;;;2464297;53;20907;-74
2022/05/22 09:04:05;;;;;;;1.48;0.70;;;24.50;46.70;;;;;;2560309;53;20945;-74
2022/05/22 09:06:44;;;;;;;1.00;0.40;;;24.80;46.30;;;;;;2582004;53;20935;-75
2022/05/22 09:09:11;;;;;;;2.70;0.60;;;24.90;46.10;;;;;;2441896;53;21577;-77
2022/05/22 09:14:20;;;;;;;1.50;0.60;;;25.00;46.10;;;;;;2577688;53;20939;-75
2022/05/22 09:17:09;;;;;;;2.20;0.60;;;25.20;45.30;;;;;;2447085;53;21571;-76
2022/05/22 09:19:45;;;;;;;1.27;0.50;;;25.30;44.80;;;;;;2577412;53;20911;-75
2022/05/22 09:24:19;;;;;;;1.50;0.60;;;25.30;44.80;;;;;;2338442;54;20946;-74
2022/05/22 09:27:08;;;;;;;0.70;0.30;;;25.40;44.60;;;;;;2583343;53;20927;-75
2022/05/22 09:29:50;;;;;;;1.40;0.50;;;25.50;44.40;;;;;;2338336;54;20904;-76
2022/05/22 09:35:39;;;;;;;1.60;0.50;;;25.60;44.40;;;;;;2338599;54;21346;-77
2022/05/22 09:41:10;;;;;;;1.15;0.40;;;25.70;44.00;;;;;;2358503;53;20948;-77
2022/05/22 09:45:16;;;;;;;2.30;0.60;;;25.90;44.00;;;;;;2338651;54;20980;-75
2022/05/22 09:47:59;;;;;;;0.88;0.40;;;26.00;43.70;;;;;;2581920;53;20979;-76
2022/05/22 09:52:26;;;;;;;1.25;0.60;;;26.10;43.30;;;;;;2336721;54;20974;-76
2022/05/22 09:55:23;;;;;;;0.80;0.32;;;26.20;43.40;;;;;;2339226;54;20931;-75
2022/05/22 09:58:15;;;;;;;1.12;0.40;;;26.20;42.80;;;;;;2337807;54;21330;-75
2022/05/22 10:01:02;;;;;;;1.52;0.50;;;26.20;42.30;;;;;;2566408;53;21875;-76
2022/05/22 10:07:15;;;;;;;1.83;0.60;;;26.30;42.20;;;;;;2329829;54;20989;-76
2022/05/22 10:11:19;;;;;;;2.92;0.57;;;26.30;42.80;;;;;;2338421;54;21032;-75
2022/05/22 10:19:00;;;;;;;1.15;0.40;;;26.40;42.20;;;;;;2583616;53;20911;-75
2022/05/22 10:26:51;;;;;;;1.52;0.50;;;26.50;42.40;;;;;;2581971;53;20915;-76
2022/05/22 10:29:54;;;;;;;1.52;0.47;;;26.50;41.60;;;;;;2381192;53;21373;-75
2022/05/22 10:32:33;;;;;;;0.62;0.30;;;26.70;42.30;;;;;;2338553;54;21721;-75
2022/05/22 10:35:14;;;;;;;2.85;0.60;;;26.70;42.10;;;;;;2338552;54;21404;-75
2022/05/22 10:37:49;;;;;;;0.90;0.40;;;26.80;42.30;;;;;;2323673;54;21074;-75
2022/05/22 10:40:21;;;;;;;1.73;0.80;;;26.90;42.00;;;;;;2337712;54;21026;-75
2022/05/22 10:42:51;;;;;;;1.52;0.50;;;26.90;41.70;;;;;;2339192;54;21070;-75
2022/05/22 10:45:33;;;;;;;1.35;0.50;;;27.00;41.50;;;;;;2408075;54;21004;-75
2022/05/22 10:48:35;;;;;;;1.60;0.50;;;27.10;41.10;;;;;;2334464;53;20945;-76
2022/05/22 10:51:11;;;;;;;1.62;0.57;;;27.20;41.00;;;;;;2563311;53;21597;-74
2022/05/22 10:53:40;;;;;;;2.58;0.50;;;27.30;40.90;;;;;;2320593;54;21453;-75
2022/05/22 10:56:22;;;;;;;1.80;0.37;;;27.40;41.00;;;;;;2336883;54;20963;-76
2022/05/22 10:59:19;;;;;;;1.30;0.50;;;27.40;40.80;;;;;;2322135;54;20947;-75
2022/05/22 11:02:03;;;;;;;1.12;0.50;;;27.50;40.40;;;;;;2337008;54;21051;-76
2022/05/22 11:04:36;;;;;;;1.48;0.60;;;27.60;40.50;;;;;;2309744;54;1338052;-76
2022/05/22 11:07:04;;;;;;;1.67;0.60;;;27.60;40.40;;;;;;2317498;54;21479;-78
2022/05/22 11:09:44;;;;;;;1.98;0.40;;;27.70;40.60;;;;;;2489484;53;20932;-75
2022/05/22 11:12:26;;;;;;;1.10;0.60;;;27.80;40.20;;;;;;2567060;53;21609;-75
2022/05/22 11:15:10;;;;;;;0.85;0.37;;;27.90;40.00;;;;;;2345823;54;20987;-75
2022/05/22 11:17:40;;;;;;;1.00;0.40;;;27.90;39.80;;;;;;2339152;54;20959;-79
2022/05/22 11:20:17;;;;;;;0.90;0.40;;;28.00;40.00;;;;;;2337944;54;20916;-76
2022/05/22 11:23:10;;;;;;;0.88;0.47;;;28.10;39.50;;;;;;2434255;53;20986;-79
2022/05/22 11:28:52;;;;;;;1.33;0.40;;;28.10;40.00;;;;;;2337976;54;20987;-76
2022/05/22 11:33:09;;;;;;;1.58;0.55;;;28.30;39.60;;;;;;2342224;54;21759;-76
2022/05/22 11:35:47;;;;;;;1.37;0.50;;;28.40;39.30;;;;;;2389045;53;21406;-75
2022/05/22 11:38:42;;;;;;;2.15;0.68;;;28.40;38.80;;;;;;2317732;54;21031;-77
2022/05/22 11:43:56;;;;;;;1.95;0.70;;;28.50;38.40;;;;;;2332328;54;21381;-75
2022/05/22 11:48:18;;;;;;;4.93;2.03;;;28.50;38.50;;;;;;2322559;54;20977;-76
2022/05/22 11:51:12;;;;;;;6.78;2.33;;;28.60;38.30;;;;;;2582696;53;21456;-75
2022/05/22 11:55:01;;;;;;;7.07;2.92;;;28.70;37.70;;;;;;2337847;54;20931;-74
2022/05/22 11:59:17;;;;;;;4.53;1.70;;;28.70;36.90;;;;;;2413232;53;20923;-75
2022/05/22 12:01:59;;;;;;;1.50;0.68;;;28.70;37.20;;;;;;2338174;54;21015;-75
2022/05/22 12:05:22;;;;;;;1.60;0.70;;;28.70;36.90;;;;;;2338102;54;20923;-75
2022/05/22 12:08:21;;;;;;;1.60;0.47;;;28.70;36.50;;;;;;2319799;54;21043;-75
2022/05/22 12:12:30;;;;;;;2.10;0.65;;;28.60;36.00;;;;;;2556385;54;21079;-76
2022/05/22 12:16:31;;;;;;;1.23;0.45;;;28.60;36.30;;;;;;2315361;54;21767;-75
2022/05/22 12:19:09;;;;;;;1.17;0.45;;;28.50;36.60;;;;;;2313429;54;20994;-75
2022/05/22 12:23:10;;;;;;;1.08;0.40;;;28.50;36.60;;;;;;2349710;54;21034;-75
2022/05/22 12:25:48;;;;;;;0.85;0.30;;;28.50;37.10;;;;;;2479229;54;21018;-75
2022/05/22 12:29:24;;;;;;;0.73;0.30;;;28.50;37.00;;;;;;2405306;54;20935;-75
2022/05/22 12:31:58;;;;;;;1.08;0.43;;;28.50;36.60;;;;;;2315650;55;20951;-76
2022/05/22 12:35:07;;;;;;;2.65;0.57;;;28.60;36.80;;;;;;2554512;53;21753;-75
2022/05/22 12:37:39;;;;;;;0.85;0.40;;;28.70;36.30;;;;;;2513567;53;20928;-75
2022/05/22 12:44:13;;;;;;;2.30;0.50;;;28.70;36.80;;;;;;2342036;54;20965;-75
2022/05/22 12:46:39;;;;;;;2.12;0.80;;;28.80;36.50;;;;;;2339108;53;21602;-75
2022/05/22 12:49:28;;;;;;;1.10;0.40;;;29.00;36.80;;;;;;2340866;54;20960;-76
2022/05/22 12:52:27;;;;;;;1.10;0.35;;;29.10;36.00;;;;;;2549806;54;21048;-76
2022/05/22 12:56:47;;;;;;;0.93;0.35;;;29.20;36.10;;;;;;2301848;55;21597;-76
2022/05/22 12:59:27;;;;;;;1.33;0.40;;;29.30;36.30;;;;;;2314085;55;20940;-76
2022/05/22 13:01:57;;;;;;;1.67;0.43;;;29.40;35.80;;;;;;2316082;54;20935;-75
2022/05/22 13:04:50;;;;;;;1.40;0.60;;;29.50;36.00;;;;;;2318244;54;21782;-74
2022/05/22 13:07:20;;;;;;;0.80;0.35;;;29.50;35.10;;;;;;2485013;53;21028;-74
2022/05/22 13:09:51;;;;;;;1.12;0.50;;;29.70;35.30;;;;;;2316370;53;20934;-74
2022/05/22 13:12:30;;;;;;;0.70;0.30;;;29.70;34.90;;;;;;2298468;54;20946;-74
2022/05/22 13:15:04;;;;;;;0.98;0.30;;;29.80;35.40;;;;;;2324494;55;20941;-73
2022/05/22 13:17:43;;;;;;;0.93;0.40;;;29.90;35.30;;;;;;2390467;54;21770;-74
2022/05/22 13:20:30;;;;;;;0.90;0.35;;;30.00;35.00;;;;;;2325262;54;20986;-75
2022/05/22 13:23:40;;;;;;;1.25;0.50;;;30.10;34.40;;;;;;2341395;54;20920;-73
2022/05/22 13:27:59;;;;;;;1.37;0.43;;;30.20;34.10;;;;;;2342504;54;20953;-74
2022/05/22 13:30:29;;;;;;;0.68;0.28;;;30.20;34.00;;;;;;2341793;54;20992;-73
2022/05/22 13:33:00;;;;;;;0.50;0.28;;;30.20;33.60;;;;;;2341868;54;20988;-71
2022/05/22 13:35:30;;;;;;;1.27;0.50;;;30.20;33.60;;;;;;2342045;54;21381;-74
2022/05/22 13:37:56;;;;;;;2.00;0.50;;;30.20;33.70;;;;;;2342449;54;21012;-74
2022/05/22 13:40:44;;;;;;;1.40;0.60;;;30.10;33.40;;;;;;2341591;54;20949;-75
2022/05/22 13:48:38;;;;;;;1.50;0.50;;;30.10;33.10;;;;;;2520433;53;21064;-74
2022/05/22 13:52:45;;;;;;;1.35;0.47;;;30.00;33.00;;;;;;2342793;54;20962;-78
2022/05/22 13:55:19;;;;;;;0.88;0.40;;;30.00;33.20;;;;;;2342326;54;21828;-74
2022/05/22 13:58:00;;;;;;;1.33;0.50;;;29.90;33.20;;;;;;2588775;53;20940;-74
2022/05/22 14:00:31;;;;;;;3.33;0.60;;;29.90;33.10;;;;;;2365359;53;21101;-75
2022/05/22 14:03:07;;;;;;;1.52;0.60;;;29.80;33.30;;;;;;2342461;54;21580;-75
2022/05/22 14:05:44;;;;;;;1.92;0.77;;;29.70;33.00;;;;;;2342576;54;21099;-75
2022/05/22 14:08:34;;;;;;;2.15;0.65;;;29.70;32.90;;;;;;2344253;54;21108;-75
2022/05/22 14:11:12;;;;;;;1.50;0.62;;;29.60;32.80;;;;;;2342500;54;20952;-75
2022/05/22 14:13:48;;;;;;;1.00;0.40;;;29.50;32.70;;;;;;2322841;55;20937;-73
2022/05/22 14:16:38;;;;;;;1.02;0.40;;;29.40;32.80;;;;;;2341638;54;21012;-73
2022/05/22 14:19:10;;;;;;;0.90;0.40;;;29.30;32.70;;;;;;2342516;54;20957;-74
2022/05/22 14:21:45;;;;;;;;;;;29.30;32.70;;;;;;2400181;53;20941;-74
2022/05/22 14:33:58;;;;;;;1.77;0.40;;;29.20;32.90;;;;;;2515489;54;20976;-74
2022/05/22 14:36:24;;;;;;;2.17;0.50;;;29.00;33.40;;;;;;2342136;54;20969;-74